sensor_id;sensor_type;location;lat;lon;timestamp;temperature;humidity
7004;DHT22;3542;48.812;9.146;2022-08-23T00:00:43;16.60;99.90
7004;DHT22;3542;48.812;9.146;2022-08-23T00:03:09;16.60;99.90
7004;DHT22;3542;48.812;9.146;2022-08-23T00:05:35;16.60;99.90
7004;DHT22;3542;48.812;9.146;2022-08-23T00:08:00;16.50;99.90
7004;DHT22;3542;48.812;9.146;2022-08-23T00:10:26;16.50;99.90
7004;DHT22;3542;48.812;9.146;2022-08-23T00:12:51;16.50;99.90
7004;DHT22;3542;48.812;9.146;2022-08-23T00:15:19;16.50;99.90
7004;DHT22;3542;48.812;9.146;2022-08-23T00:17:45;16.40;99.90
7004;DHT22;3542;48.812;9.146;2022-08-23T00:20:14;16.40;99.90
7004;DHT22;3542;48.812;9.146;2022-08-23T00:22:40;16.40;99.90
7004;DHT22;3542;48.812;9.146;2022-08-23T00:25:08;16.40;99.90
7004;DHT22;3542;48.812;9.146;2022-08-23T00:27:35;16.40;99.90
7004;DHT22;3542;48.812;9.146;2022-08-23T00:30:00;16.40;99.90
7004;DHT22;3542;48.812;9.146;2022-08-23T00:32:29;16.30;99.90
7004;DHT22;3542;48.812;9.146;2022-08-23T00:34:57;16.30;99.90
7004;DHT22;3542;48.812;9.146;2022-08-23T00:37:24;16.30;99.90
7004;DHT22;3542;48.812;9.146;2022-08-23T00:39:50;16.30;99.90
7004;DHT22;3542;48.812;9.146;2022-08-23T00:42:56;16.40;99.90
7004;DHT22;3542;48.812;9.146;2022-08-23T00:48:31;16.30;99.90
7004;DHT22;3542;48.812;9.146;2022-08-23T00:51:16;16.30;99.90
7004;DHT22;3542;48.812;9.146;2022-08-23T00:53:47;16.30;99.90
7004;DHT22;3542;48.812;9.146;2022-08-23T00:56:16;16.30;99.90
7004;DHT22;3542;48.812;9.146;2022-08-23T00:58:43;16.20;99.90
7004;DHT22;3542;48.812;9.146;2022-08-23T02:31:48;15.30;99.90
7004;DHT22;3542;48.812;9.146;2022-08-23T02:34:15;15.20;99.90
7004;DHT22;3542;48.812;9.146;2022-08-23T02:36:41;15.20;99.90
7004;DHT22;3542;48.812;9.146;2022-08-23T02:39:09;15.10;99.90
7004;DHT22;3542;48.812;9.146;2022-08-23T02:41:35;15.10;99.90
7004;DHT22;3542;48.812;9.146;2022-08-23T02:44:03;15.10;99.90
7004;DHT22;3542;48.812;9.146;2022-08-23T02:46:28;15.00;99.90
7004;DHT22;3542;48.812;9.146;2022-08-23T02:48:54;15.00;99.90
7004;DHT22;3542;48.812;9.146;2022-08-23T02:51:20;15.00;99.90
7004;DHT22;3542;48.812;9.146;2022-08-23T02:53:46;15.00;99.90
7004;DHT22;3542;48.812;9.146;2022-08-23T02:56:13;14.90;99.90
7004;DHT22;3542;48.812;9.146;2022-08-23T02:58:39;14.90;99.90
7004;DHT22;3542;48.812;9.146;2022-08-23T03:01:05;14.90;99.90
7004;DHT22;3542;48.812;9.146;2022-08-23T03:03:38;14.90;99.90
7004;DHT22;3542;48.812;9.146;2022-08-23T03:06:04;14.80;99.90
7004;DHT22;3542;48.812;9.146;2022-08-23T03:08:29;14.80;99.90
7004;DHT22;3542;48.812;9.146;2022-08-23T03:10:55;14.70;99.90
7004;DHT22;3542;48.812;9.146;2022-08-23T03:13:20;14.70;99.90
7004;DHT22;3542;48.812;9.146;2022-08-23T03:15:46;14.60;99.90
7004;DHT22;3542;48.812;9.146;2022-08-23T03:18:11;14.60;99.90
7004;DHT22;3542;48.812;9.146;2022-08-23T03:20:38;14.60;99.90
7004;DHT22;3542;48.812;9.146;2022-08-23T03:23:06;14.50;99.90
7004;DHT22;3542;48.812;9.146;2022-08-23T03:25:32;14.50;99.90
7004;DHT22;3542;48.812;9.146;2022-08-23T03:28:01;14.50;99.90
7004;DHT22;3542;48.812;9.146;2022-08-23T03:30:28;14.40;99.90
7004;DHT22;3542;48.812;9.146;2022-08-23T03:32:54;14.40;99.90
7004;DHT22;3542;48.812;9.146;2022-08-23T03:35:20;14.40;99.90
7004;DHT22;3542;48.812;9.146;2022-08-23T03:37:46;14.40;99.90
7004;DHT22;3542;48.812;9.146;2022-08-23T03:40:11;14.30;99.90
7004;DHT22;3542;48.812;9.146;2022-08-23T03:42:37;14.30;99.90
7004;DHT22;3542;48.812;9.146;2022-08-23T03:45:03;14.30;99.90
7004;DHT22;3542;48.812;9.146;2022-08-23T03:47:29;14.20;99.90
7004;DHT22;3542;48.812;9.146;2022-08-23T03:49:54;14.20;99.90
7004;DHT22;3542;48.812;9.146;2022-08-23T03:52:20;14.10;99.90
7004;DHT22;3542;48.812;9.146;2022-08-23T03:54:45;14.10;99.90
7004;DHT22;3542;48.812;9.146;2022-08-23T03:57:11;14.10;99.90
7004;DHT22;3542;48.812;9.146;2022-08-23T03:59:39;14.10;99.90
7004;DHT22;3542;48.812;9.146;2022-08-23T04:02:05;14.10;99.90
7004;DHT22;3542;48.812;9.146;2022-08-23T04:04:31;14.00;99.90
7004;DHT22;3542;48.812;9.146;2022-08-23T04:06:57;14.00;99.90
7004;DHT22;3542;48.812;9.146;2022-08-23T04:09:22;14.00;99.90
7004;DHT22;3542;48.812;9.146;2022-08-23T04:11:48;14.00;99.90
7004;DHT22;3542;48.812;9.146;2022-08-23T04:14:14;14.00;99.90
7004;DHT22;3542;48.812;9.146;2022-08-23T04:16:40;14.00;99.90
7004;DHT22;3542;48.812;9.146;2022-08-23T04:19:07;14.00;99.90
7004;DHT22;3542;48.812;9.146;2022-08-23T04:21:35;14.00;99.90
7004;DHT22;3542;48.812;9.146;2022-08-23T04:24:03;13.90;99.90
7004;DHT22;3542;48.812;9.146;2022-08-23T04:26:29;13.90;99.90
7004;DHT22;3542;48.812;9.146;2022-08-23T04:28:54;13.90;99.90
7004;DHT22;3542;48.812;9.146;2022-08-23T04:31:20;13.90;99.90
7004;DHT22;3542;48.812;9.146;2022-08-23T04:33:46;13.90;99.90
7004;DHT22;3542;48.812;9.146;2022-08-23T04:36:12;13.90;99.90
7004;DHT22;3542;48.812;9.146;2022-08-23T04:38:38;13.80;99.90
7004;DHT22;3542;48.812;9.146;2022-08-23T04:41:04;13.80;99.90
7004;DHT22;3542;48.812;9.146;2022-08-23T04:43:48;13.80;99.90
7004;DHT22;3542;48.812;9.146;2022-08-23T04:46:15;13.90;99.90
7004;DHT22;3542;48.812;9.146;2022-08-23T04:48:42;13.90;99.90
7004;DHT22;3542;48.812;9.146;2022-08-23T04:51:07;14.00;99.90
7004;DHT22;3542;48.812;9.146;2022-08-23T04:53:33;13.90;99.90
7004;DHT22;3542;48.812;9.146;2022-08-23T04:55:59;14.00;99.90
7004;DHT22;3542;48.812;9.146;2022-08-23T04:58:27;14.00;99.90
7004;DHT22;3542;48.812;9.146;2022-08-23T05:00:53;14.00;99.90
7004;DHT22;3542;48.812;9.146;2022-08-23T05:03:19;14.10;99.90
7004;DHT22;3542;48.812;9.146;2022-08-23T05:05:44;14.10;99.90
7004;DHT22;3542;48.812;9.146;2022-08-23T05:08:10;14.10;99.90
7004;DHT22;3542;48.812;9.146;2022-08-23T05:10:35;14.10;99.90
7004;DHT22;3542;48.812;9.146;2022-08-23T05:13:01;14.20;99.90
7004;DHT22;3542;48.812;9.146;2022-08-23T05:15:26;14.30;99.90
7004;DHT22;3542;48.812;9.146;2022-08-23T05:17:52;14.40;99.90
7004;DHT22;3542;48.812;9.146;2022-08-23T05:20:18;14.50;99.90
7004;DHT22;3542;48.812;9.146;2022-08-23T05:22:43;14.70;99.90
7004;DHT22;3542;48.812;9.146;2022-08-23T05:25:09;15.10;99.90
7004;DHT22;3542;48.812;9.146;2022-08-23T05:27:35;15.50;99.90
7004;DHT22;3542;48.812;9.146;2022-08-23T05:30:01;16.10;99.90
7004;DHT22;3542;48.812;9.146;2022-08-23T05:32:27;16.50;99.90
7004;DHT22;3542;48.812;9.146;2022-08-23T05:34:52;17.00;99.90
7004;DHT22;3542;48.812;9.146;2022-08-23T05:37:18;17.50;99.90
7004;DHT22;3542;48.812;9.146;2022-08-23T05:39:43;18.10;99.90
7004;DHT22;3542;48.812;9.146;2022-08-23T05:42:11;18.50;99.90
7004;DHT22;3542;48.812;9.146;2022-08-23T05:44:37;18.90;99.90
7004;DHT22;3542;48.812;9.146;2022-08-23T05:47:04;19.40;99.90
7004;DHT22;3542;48.812;9.146;2022-08-23T05:49:31;19.80;99.90
7004;DHT22;3542;48.812;9.146;2022-08-23T05:51:57;20.00;99.90
7004;DHT22;3542;48.812;9.146;2022-08-23T05:54:22;20.10;99.90
7004;DHT22;3542;48.812;9.146;2022-08-23T05:56:48;20.50;99.90
7004;DHT22;3542;48.812;9.146;2022-08-23T05:59:15;20.80;99.90
7004;DHT22;3542;48.812;9.146;2022-08-23T06:01:41;21.10;99.90
7004;DHT22;3542;48.812;9.146;2022-08-23T06:04:10;21.50;99.90
7004;DHT22;3542;48.812;9.146;2022-08-23T06:06:37;21.80;99.90
7004;DHT22;3542;48.812;9.146;2022-08-23T06:09:04;22.10;99.90
7004;DHT22;3542;48.812;9.146;2022-08-23T06:11:30;22.30;99.90
7004;DHT22;3542;48.812;9.146;2022-08-23T06:14:00;22.40;99.90
7004;DHT22;3542;48.812;9.146;2022-08-23T06:16:29;22.60;99.90
7004;DHT22;3542;48.812;9.146;2022-08-23T06:18:56;22.70;99.90
7004;DHT22;3542;48.812;9.146;2022-08-23T06:21:22;22.90;99.90
7004;DHT22;3542;48.812;9.146;2022-08-23T06:23:48;23.20;99.90
7004;DHT22;3542;48.812;9.146;2022-08-23T06:26:19;23.40;99.90
7004;DHT22;3542;48.812;9.146;2022-08-23T06:28:47;23.50;99.90
7004;DHT22;3542;48.812;9.146;2022-08-23T06:31:14;23.80;99.90
7004;DHT22;3542;48.812;9.146;2022-08-23T06:33:42;24.00;99.90
7004;DHT22;3542;48.812;9.146;2022-08-23T06:36:10;24.30;99.90
7004;DHT22;3542;48.812;9.146;2022-08-23T06:38:37;24.30;99.90
7004;DHT22;3542;48.812;9.146;2022-08-23T06:41:06;24.50;99.90
7004;DHT22;3542;48.812;9.146;2022-08-23T06:43:32;24.50;99.90
7004;DHT22;3542;48.812;9.146;2022-08-23T06:46:08;24.50;99.90
7004;DHT22;3542;48.812;9.146;2022-08-23T06:48:34;24.60;99.90
7004;DHT22;3542;48.812;9.146;2022-08-23T06:51:00;24.60;99.90
7004;DHT22;3542;48.812;9.146;2022-08-23T06:53:25;24.70;99.90
7004;DHT22;3542;48.812;9.146;2022-08-23T06:55:51;24.80;99.90
7004;DHT22;3542;48.812;9.146;2022-08-23T06:58:16;24.90;99.90
7004;DHT22;3542;48.812;9.146;2022-08-23T07:00:42;25.00;99.90
7004;DHT22;3542;48.812;9.146;2022-08-23T07:03:07;25.20;99.90
7004;DHT22;3542;48.812;9.146;2022-08-23T07:05:33;25.20;99.90
7004;DHT22;3542;48.812;9.146;2022-08-23T07:07:59;25.40;99.90
7004;DHT22;3542;48.812;9.146;2022-08-23T07:10:24;25.70;99.90
7004;DHT22;3542;48.812;9.146;2022-08-23T07:12:50;26.00;99.90
7004;DHT22;3542;48.812;9.146;2022-08-23T07:15:15;26.20;99.90
7004;DHT22;3542;48.812;9.146;2022-08-23T07:17:41;26.20;99.90
7004;DHT22;3542;48.812;9.146;2022-08-23T07:20:07;26.40;99.90
7004;DHT22;3542;48.812;9.146;2022-08-23T07:22:32;26.70;99.90
7004;DHT22;3542;48.812;9.146;2022-08-23T07:24:58;26.70;99.90
7004;DHT22;3542;48.812;9.146;2022-08-23T07:27:24;26.50;99.90
7004;DHT22;3542;48.812;9.146;2022-08-23T07:29:49;26.60;99.90
7004;DHT22;3542;48.812;9.146;2022-08-23T07:32:15;26.80;99.90
7004;DHT22;3542;48.812;9.146;2022-08-23T07:34:40;27.00;99.90
7004;DHT22;3542;48.812;9.146;2022-08-23T07:37:05;27.30;99.90
7004;DHT22;3542;48.812;9.146;2022-08-23T07:39:31;27.30;99.90
7004;DHT22;3542;48.812;9.146;2022-08-23T07:42:00;27.70;99.90
7004;DHT22;3542;48.812;9.146;2022-08-23T07:44:28;28.00;99.90
7004;DHT22;3542;48.812;9.146;2022-08-23T07:46:55;28.30;99.90
7004;DHT22;3542;48.812;9.146;2022-08-23T07:49:21;28.30;99.90
7004;DHT22;3542;48.812;9.146;2022-08-23T07:51:49;28.30;99.90
7004;DHT22;3542;48.812;9.146;2022-08-23T07:54:15;28.20;99.90
7004;DHT22;3542;48.812;9.146;2022-08-23T07:56:42;28.30;99.90
7004;DHT22;3542;48.812;9.146;2022-08-23T07:59:08;28.50;99.90
7004;DHT22;3542;48.812;9.146;2022-08-23T08:01:34;28.80;99.90
7004;DHT22;3542;48.812;9.146;2022-08-23T08:04:01;29.00;99.90
7004;DHT22;3542;48.812;9.146;2022-08-23T08:06:35;28.80;99.90
7004;DHT22;3542;48.812;9.146;2022-08-23T08:09:03;29.00;99.90
7004;DHT22;3542;48.812;9.146;2022-08-23T08:11:31;29.40;99.90
7004;DHT22;3542;48.812;9.146;2022-08-23T08:13:56;29.70;99.90
7004;DHT22;3542;48.812;9.146;2022-08-23T08:16:32;29.70;99.90
7004;DHT22;3542;48.812;9.146;2022-08-23T08:18:59;29.80;99.90
7004;DHT22;3542;48.812;9.146;2022-08-23T08:21:26;29.80;99.90
7004;DHT22;3542;48.812;9.146;2022-08-23T08:23:53;30.00;99.90
7004;DHT22;3542;48.812;9.146;2022-08-23T08:26:18;30.00;99.90
7004;DHT22;3542;48.812;9.146;2022-08-23T08:28:45;29.90;99.90
7004;DHT22;3542;48.812;9.146;2022-08-23T08:31:11;29.80;99.90
7004;DHT22;3542;48.812;9.146;2022-08-23T08:33:36;29.60;99.90
7004;DHT22;3542;48.812;9.146;2022-08-23T08:36:03;29.80;99.90
7004;DHT22;3542;48.812;9.146;2022-08-23T08:38:29;30.30;99.90
7004;DHT22;3542;48.812;9.146;2022-08-23T08:41:14;30.30;99.90
7004;DHT22;3542;48.812;9.146;2022-08-23T08:43:46;30.70;99.50
7004;DHT22;3542;48.812;9.146;2022-08-23T08:46:45;30.90;99.80
7004;DHT22;3542;48.812;9.146;2022-08-23T08:49:33;31.10;99.00
7004;DHT22;3542;48.812;9.146;2022-08-23T08:52:16;31.40;96.90
7004;DHT22;3542;48.812;9.146;2022-08-23T08:54:44;32.00;97.00
7004;DHT22;3542;48.812;9.146;2022-08-23T08:57:15;32.30;95.50
7004;DHT22;3542;48.812;9.146;2022-08-23T09:00:10;32.60;94.20
7004;DHT22;3542;48.812;9.146;2022-08-23T09:02:39;33.00;94.40
7004;DHT22;3542;48.812;9.146;2022-08-23T09:05:10;33.20;93.40
7004;DHT22;3542;48.812;9.146;2022-08-23T09:16:18;32.90;90.50
7004;DHT22;3542;48.812;9.146;2022-08-23T09:18:47;32.90;90.20
7004;DHT22;3542;48.812;9.146;2022-08-23T09:21:13;33.30;91.00
7004;DHT22;3542;48.812;9.146;2022-08-23T09:23:43;33.10;89.30
7004;DHT22;3542;48.812;9.146;2022-08-23T09:26:22;33.30;88.00
7004;DHT22;3542;48.812;9.146;2022-08-23T09:28:57;33.10;87.50
7004;DHT22;3542;48.812;9.146;2022-08-23T09:31:53;33.30;87.00
7004;DHT22;3542;48.812;9.146;2022-08-23T09:34:21;33.30;87.80
7004;DHT22;3542;48.812;9.146;2022-08-23T09:36:47;33.30;82.30
7004;DHT22;3542;48.812;9.146;2022-08-23T09:39:23;33.40;80.40
7004;DHT22;3542;48.812;9.146;2022-08-23T09:41:50;33.40;80.70
7004;DHT22;3542;48.812;9.146;2022-08-23T09:44:36;33.80;80.00
7004;DHT22;3542;48.812;9.146;2022-08-23T09:47:14;34.00;80.40
7004;DHT22;3542;48.812;9.146;2022-08-23T09:49:42;34.10;77.50
7004;DHT22;3542;48.812;9.146;2022-08-23T09:52:33;34.50;75.50
7004;DHT22;3542;48.812;9.146;2022-08-23T09:55:02;34.10;72.60
7004;DHT22;3542;48.812;9.146;2022-08-23T09:57:30;33.90;72.00
7004;DHT22;3542;48.812;9.146;2022-08-23T10:00:02;33.70;72.00
7004;DHT22;3542;48.812;9.146;2022-08-23T10:02:42;33.20;72.50
7004;DHT22;3542;48.812;9.146;2022-08-23T10:05:27;32.20;73.00
7004;DHT22;3542;48.812;9.146;2022-08-23T10:07:59;32.80;74.00
7004;DHT22;3542;48.812;9.146;2022-08-23T10:10:35;32.90;72.40
7004;DHT22;3542;48.812;9.146;2022-08-23T10:13:03;33.20;72.20
7004;DHT22;3542;48.812;9.146;2022-08-23T10:21:45;34.60;70.90
7004;DHT22;3542;48.812;9.146;2022-08-23T10:26:45;34.70;67.60
7004;DHT22;3542;48.812;9.146;2022-08-23T10:29:38;34.50;68.60
7004;DHT22;3542;48.812;9.146;2022-08-23T10:32:23;34.80;67.50
7004;DHT22;3542;48.812;9.146;2022-08-23T10:44:02;34.70;66.00
7004;DHT22;3542;48.812;9.146;2022-08-23T10:46:36;34.90;65.30
7004;DHT22;3542;48.812;9.146;2022-08-23T10:49:04;34.80;65.80
7004;DHT22;3542;48.812;9.146;2022-08-23T10:51:35;35.40;65.30
7004;DHT22;3542;48.812;9.146;2022-08-23T10:54:08;35.60;63.30
7004;DHT22;3542;48.812;9.146;2022-08-23T10:56:37;35.50;63.10
7004;DHT22;3542;48.812;9.146;2022-08-23T10:59:12;35.60;62.30
7004;DHT22;3542;48.812;9.146;2022-08-23T11:04:25;35.30;62.90
7004;DHT22;3542;48.812;9.146;2022-08-23T11:06:55;35.50;60.70
7004;DHT22;3542;48.812;9.146;2022-08-23T11:17:01;33.70;60.20
7004;DHT22;3542;48.812;9.146;2022-08-23T11:22:23;33.70;60.10
7004;DHT22;3542;48.812;9.146;2022-08-23T11:27:36;33.30;59.30
7004;DHT22;3542;48.812;9.146;2022-08-23T11:30:47;33.20;59.10
7004;DHT22;3542;48.812;9.146;2022-08-23T11:33:21;33.40;60.60
7004;DHT22;3542;48.812;9.146;2022-08-23T11:36:19;33.40;59.10
7004;DHT22;3542;48.812;9.146;2022-08-23T11:52:29;32.50;63.60
7004;DHT22;3542;48.812;9.146;2022-08-23T11:55:21;32.00;64.20
7004;DHT22;3542;48.812;9.146;2022-08-23T11:57:53;31.60;64.90
7004;DHT22;3542;48.812;9.146;2022-08-23T12:01:09;31.60;64.70
7004;DHT22;3542;48.812;9.146;2022-08-23T12:03:33;31.70;65.00
7004;DHT22;3542;48.812;9.146;2022-08-23T12:06:35;31.70;64.80
7004;DHT22;3542;48.812;9.146;2022-08-23T12:09:04;31.80;65.30
7004;DHT22;3542;48.812;9.146;2022-08-23T12:12:06;32.00;65.60
7004;DHT22;3542;48.812;9.146;2022-08-23T12:14:55;32.20;65.60
7004;DHT22;3542;48.812;9.146;2022-08-23T12:19:56;32.20;64.80
7004;DHT22;3542;48.812;9.146;2022-08-23T12:22:30;32.10;64.90
7004;DHT22;3542;48.812;9.146;2022-08-23T12:25:05;32.00;65.00
7004;DHT22;3542;48.812;9.146;2022-08-23T12:27:56;31.80;64.80
7004;DHT22;3542;48.812;9.146;2022-08-23T12:30:28;31.70;65.90
7004;DHT22;3542;48.812;9.146;2022-08-23T12:33:49;31.50;65.60
7004;DHT22;3542;48.812;9.146;2022-08-23T12:39:01;31.50;64.80
7004;DHT22;3542;48.812;9.146;2022-08-23T12:41:52;31.50;64.50
7004;DHT22;3542;48.812;9.146;2022-08-23T12:44:19;31.00;64.80
7004;DHT22;3542;48.812;9.146;2022-08-23T12:46:46;30.70;65.40
7004;DHT22;3542;48.812;9.146;2022-08-23T12:49:52;30.40;65.80
7004;DHT22;3542;48.812;9.146;2022-08-23T12:52:27;30.40;66.10
7004;DHT22;3542;48.812;9.146;2022-08-23T12:54:53;30.40;65.80
7004;DHT22;3542;48.812;9.146;2022-08-23T12:57:37;30.00;66.30
7004;DHT22;3542;48.812;9.146;2022-08-23T13:02:46;29.70;67.10
7004;DHT22;3542;48.812;9.146;2022-08-23T13:05:24;29.70;68.10
7004;DHT22;3542;48.812;9.146;2022-08-23T13:07:51;30.00;68.40
7004;DHT22;3542;48.812;9.146;2022-08-23T13:10:17;29.80;66.50
7004;DHT22;3542;48.812;9.146;2022-08-23T13:12:43;29.80;67.40
7004;DHT22;3542;48.812;9.146;2022-08-23T13:15:09;29.90;67.60
7004;DHT22;3542;48.812;9.146;2022-08-23T13:17:37;29.90;67.20
7004;DHT22;3542;48.812;9.146;2022-08-23T13:22:33;30.00;66.00
7004;DHT22;3542;48.812;9.146;2022-08-23T13:25:08;30.00;67.70
7004;DHT22;3542;48.812;9.146;2022-08-23T13:27:48;30.20;67.10
7004;DHT22;3542;48.812;9.146;2022-08-23T13:32:48;30.00;67.60
7004;DHT22;3542;48.812;9.146;2022-08-23T13:46:11;29.90;68.10
7004;DHT22;3542;48.812;9.146;2022-08-23T13:48:50;29.90;68.70
7004;DHT22;3542;48.812;9.146;2022-08-23T13:51:26;30.10;68.50
7004;DHT22;3542;48.812;9.146;2022-08-23T13:53:54;30.30;67.90
7004;DHT22;3542;48.812;9.146;2022-08-23T13:56:20;30.10;68.80
7004;DHT22;3542;48.812;9.146;2022-08-23T13:59:06;30.00;67.20
7004;DHT22;3542;48.812;9.146;2022-08-23T14:01:40;29.80;67.20
7004;DHT22;3542;48.812;9.146;2022-08-23T14:04:05;29.80;66.90
7004;DHT22;3542;48.812;9.146;2022-08-23T14:06:31;29.70;66.80
7004;DHT22;3542;48.812;9.146;2022-08-23T14:08:56;29.60;67.40
7004;DHT22;3542;48.812;9.146;2022-08-23T14:11:22;29.50;67.50
7004;DHT22;3542;48.812;9.146;2022-08-23T14:13:48;29.50;67.50
7004;DHT22;3542;48.812;9.146;2022-08-23T14:16:24;29.80;69.60
7004;DHT22;3542;48.812;9.146;2022-08-23T14:18:50;29.90;69.60
7004;DHT22;3542;48.812;9.146;2022-08-23T14:21:16;30.00;69.00
7004;DHT22;3542;48.812;9.146;2022-08-23T14:23:41;30.00;69.10
7004;DHT22;3542;48.812;9.146;2022-08-23T14:26:07;30.00;69.30
7004;DHT22;3542;48.812;9.146;2022-08-23T14:28:36;30.00;69.20
7004;DHT22;3542;48.812;9.146;2022-08-23T14:31:01;29.90;68.10
7004;DHT22;3542;48.812;9.146;2022-08-23T14:33:27;29.80;68.20
7004;DHT22;3542;48.812;9.146;2022-08-23T14:35:52;29.80;68.20
7004;DHT22;3542;48.812;9.146;2022-08-23T14:38:18;29.80;69.30
7004;DHT22;3542;48.812;9.146;2022-08-23T14:40:50;29.80;68.90
7004;DHT22;3542;48.812;9.146;2022-08-23T14:43:17;29.80;69.00
7004;DHT22;3542;48.812;9.146;2022-08-23T14:45:42;29.80;69.40
7004;DHT22;3542;48.812;9.146;2022-08-23T14:48:08;29.70;68.80
7004;DHT22;3542;48.812;9.146;2022-08-23T14:50:33;29.70;70.40
7004;DHT22;3542;48.812;9.146;2022-08-23T14:53:01;29.60;69.30
7004;DHT22;3542;48.812;9.146;2022-08-23T14:55:27;29.60;69.10
7004;DHT22;3542;48.812;9.146;2022-08-23T14:57:53;29.60;68.90
7004;DHT22;3542;48.812;9.146;2022-08-23T15:00:18;29.50;68.80
7004;DHT22;3542;48.812;9.146;2022-08-23T15:02:45;29.50;69.30
7004;DHT22;3542;48.812;9.146;2022-08-23T15:05:13;29.50;69.30
7004;DHT22;3542;48.812;9.146;2022-08-23T15:07:39;29.40;69.90
7004;DHT22;3542;48.812;9.146;2022-08-23T15:10:05;29.50;69.40
7004;DHT22;3542;48.812;9.146;2022-08-23T15:12:31;29.30;69.40
7004;DHT22;3542;48.812;9.146;2022-08-23T15:14:57;29.30;69.60
7004;DHT22;3542;48.812;9.146;2022-08-23T15:17:23;29.30;69.60
7004;DHT22;3542;48.812;9.146;2022-08-23T15:19:48;29.20;68.80
7004;DHT22;3542;48.812;9.146;2022-08-23T15:22:14;29.20;70.10
7004;DHT22;3542;48.812;9.146;2022-08-23T15:24:39;29.20;70.40
7004;DHT22;3542;48.812;9.146;2022-08-23T15:27:06;29.30;70.30
7004;DHT22;3542;48.812;9.146;2022-08-23T15:29:31;29.30;70.10
7004;DHT22;3542;48.812;9.146;2022-08-23T15:31:57;29.40;69.80
7004;DHT22;3542;48.812;9.146;2022-08-23T15:34:23;29.40;69.90
7004;DHT22;3542;48.812;9.146;2022-08-23T15:36:48;29.30;69.30
7004;DHT22;3542;48.812;9.146;2022-08-23T15:39:14;29.30;70.50
7004;DHT22;3542;48.812;9.146;2022-08-23T15:41:40;29.20;71.00
7004;DHT22;3542;48.812;9.146;2022-08-23T15:44:05;29.20;70.60
7004;DHT22;3542;48.812;9.146;2022-08-23T15:46:31;29.20;71.00
7004;DHT22;3542;48.812;9.146;2022-08-23T15:48:59;29.10;71.10
7004;DHT22;3542;48.812;9.146;2022-08-23T15:51:26;29.20;71.70
7004;DHT22;3542;48.812;9.146;2022-08-23T15:53:52;29.20;72.00
7004;DHT22;3542;48.812;9.146;2022-08-23T15:56:21;29.20;71.30
7004;DHT22;3542;48.812;9.146;2022-08-23T15:58:49;29.20;70.90
7004;DHT22;3542;48.812;9.146;2022-08-23T16:01:16;29.30;70.90
7004;DHT22;3542;48.812;9.146;2022-08-23T16:03:42;29.20;70.60
7004;DHT22;3542;48.812;9.146;2022-08-23T16:06:10;29.20;71.50
7004;DHT22;3542;48.812;9.146;2022-08-23T16:08:35;29.20;71.50
7004;DHT22;3542;48.812;9.146;2022-08-23T16:11:03;29.20;71.00
7004;DHT22;3542;48.812;9.146;2022-08-23T16:13:33;29.30;71.20
7004;DHT22;3542;48.812;9.146;2022-08-23T16:15:58;29.30;71.40
7004;DHT22;3542;48.812;9.146;2022-08-23T16:18:24;29.40;71.00
7004;DHT22;3542;48.812;9.146;2022-08-23T16:20:50;29.40;71.30
7004;DHT22;3542;48.812;9.146;2022-08-23T16:23:15;29.40;71.00
7004;DHT22;3542;48.812;9.146;2022-08-23T16:25:41;29.40;72.00
7004;DHT22;3542;48.812;9.146;2022-08-23T16:28:07;29.30;72.30
7004;DHT22;3542;48.812;9.146;2022-08-23T16:30:33;29.20;73.30
7004;DHT22;3542;48.812;9.146;2022-08-23T16:32:59;29.10;72.50
7004;DHT22;3542;48.812;9.146;2022-08-23T16:35:25;29.00;72.80
7004;DHT22;3542;48.812;9.146;2022-08-23T16:37:50;29.00;73.00
7004;DHT22;3542;48.812;9.146;2022-08-23T16:40:16;29.00;73.60
7004;DHT22;3542;48.812;9.146;2022-08-23T16:42:42;29.00;73.30
7004;DHT22;3542;48.812;9.146;2022-08-23T16:45:08;28.80;72.90
7004;DHT22;3542;48.812;9.146;2022-08-23T16:47:41;28.80;74.10
7004;DHT22;3542;48.812;9.146;2022-08-23T16:50:08;28.70;73.70
7004;DHT22;3542;48.812;9.146;2022-08-23T16:52:34;28.60;73.60
7004;DHT22;3542;48.812;9.146;2022-08-23T16:55:01;28.60;73.90
7004;DHT22;3542;48.812;9.146;2022-08-23T16:57:26;28.50;73.80
7004;DHT22;3542;48.812;9.146;2022-08-23T16:59:52;28.40;74.00
7004;DHT22;3542;48.812;9.146;2022-08-23T17:02:25;28.40;73.80
7004;DHT22;3542;48.812;9.146;2022-08-23T17:04:51;28.30;74.10
7004;DHT22;3542;48.812;9.146;2022-08-23T17:07:17;28.30;74.30
7004;DHT22;3542;48.812;9.146;2022-08-23T17:09:42;28.30;73.30
7004;DHT22;3542;48.812;9.146;2022-08-23T17:12:08;28.30;74.00
7004;DHT22;3542;48.812;9.146;2022-08-23T17:14:33;28.20;73.80
7004;DHT22;3542;48.812;9.146;2022-08-23T17:16:59;28.20;73.80
7004;DHT22;3542;48.812;9.146;2022-08-23T17:19:24;28.10;74.00
7004;DHT22;3542;48.812;9.146;2022-08-23T17:21:50;28.20;74.50
7004;DHT22;3542;48.812;9.146;2022-08-23T17:24:15;28.10;74.50
7004;DHT22;3542;48.812;9.146;2022-08-23T17:26:41;28.00;74.80
7004;DHT22;3542;48.812;9.146;2022-08-23T17:29:07;28.00;75.00
7004;DHT22;3542;48.812;9.146;2022-08-23T17:31:34;28.00;75.10
7004;DHT22;3542;48.812;9.146;2022-08-23T17:34:00;28.00;75.00
7004;DHT22;3542;48.812;9.146;2022-08-23T17:36:32;27.90;75.10
7004;DHT22;3542;48.812;9.146;2022-08-23T17:38:59;27.90;75.60
7004;DHT22;3542;48.812;9.146;2022-08-23T17:41:26;27.80;75.80
7004;DHT22;3542;48.812;9.146;2022-08-23T17:43:53;27.70;76.00
7004;DHT22;3542;48.812;9.146;2022-08-23T17:46:19;27.70;76.10
7004;DHT22;3542;48.812;9.146;2022-08-23T17:48:45;27.60;76.30
7004;DHT22;3542;48.812;9.146;2022-08-23T17:51:10;27.60;76.50
7004;DHT22;3542;48.812;9.146;2022-08-23T17:53:36;27.50;76.50
7004;DHT22;3542;48.812;9.146;2022-08-23T17:56:02;27.40;76.90
7004;DHT22;3542;48.812;9.146;2022-08-23T17:58:28;27.30;77.50
7004;DHT22;3542;48.812;9.146;2022-08-23T18:00:54;27.30;77.60
7004;DHT22;3542;48.812;9.146;2022-08-23T18:03:20;27.20;78.00
7004;DHT22;3542;48.812;9.146;2022-08-23T18:05:46;27.10;78.30
7004;DHT22;3542;48.812;9.146;2022-08-23T18:08:12;27.00;78.90
7004;DHT22;3542;48.812;9.146;2022-08-23T18:10:39;26.90;79.00
7004;DHT22;3542;48.812;9.146;2022-08-23T18:13:05;26.90;79.30
7004;DHT22;3542;48.812;9.146;2022-08-23T18:15:31;26.80;79.60
7004;DHT22;3542;48.812;9.146;2022-08-23T18:18:07;26.70;80.20
7004;DHT22;3542;48.812;9.146;2022-08-23T18:21:03;26.60;80.20
7004;DHT22;3542;48.812;9.146;2022-08-23T18:23:29;26.50;80.70
7004;DHT22;3542;48.812;9.146;2022-08-23T18:25:55;26.40;81.30
7004;DHT22;3542;48.812;9.146;2022-08-23T18:28:21;26.20;81.90
7004;DHT22;3542;48.812;9.146;2022-08-23T18:30:50;26.10;83.80
7004;DHT22;3542;48.812;9.146;2022-08-23T18:36:12;25.80;83.60
7004;DHT22;3542;48.812;9.146;2022-08-23T18:38:38;25.70;85.20
7004;DHT22;3542;48.812;9.146;2022-08-23T18:41:19;25.60;85.30
7004;DHT22;3542;48.812;9.146;2022-08-23T18:43:45;25.40;86.30
7004;DHT22;3542;48.812;9.146;2022-08-23T18:46:11;25.30;86.40
7004;DHT22;3542;48.812;9.146;2022-08-23T18:48:37;25.20;86.90
7004;DHT22;3542;48.812;9.146;2022-08-23T18:51:04;25.00;87.80
7004;DHT22;3542;48.812;9.146;2022-08-23T18:53:39;24.90;89.50
7004;DHT22;3542;48.812;9.146;2022-08-23T18:56:14;24.70;90.10
7004;DHT22;3542;48.812;9.146;2022-08-23T18:58:40;24.50;90.90
7004;DHT22;3542;48.812;9.146;2022-08-23T19:03:45;24.30;91.90
7004;DHT22;3542;48.812;9.146;2022-08-23T19:06:11;24.20;92.50
7004;DHT22;3542;48.812;9.146;2022-08-23T19:08:37;24.10;93.30
7004;DHT22;3542;48.812;9.146;2022-08-23T19:11:03;23.90;93.40
7004;DHT22;3542;48.812;9.146;2022-08-23T19:13:30;23.80;94.30